Flight Track Log - Related Links

Times and Time Zones

All times are in EDT time to prevent confusion due to time zone crossing. See the EJA695 flight status page for this flight to view local times or setup timezone preferences in your user account.

Time Position Orientation Groundspeed Altitude Reporting Facility
EDT Latitude Longitude Course Direction KTS MPH feet Rate Location/Type
Wed 09:07:41 PM 40.8333 -74.1000 43° Northeast 182 209 1,600  Level New York TRACON
Wed 09:08:41 PM 40.8167 -74.1833 255° West 218 251 2,500 1,905 Climbing New York TRACON
Wed 09:09:47 PM 40.8167 -74.2500 270° West 243 280 5,600 1,800 Climbing New York TRACON
Wed 09:10:41 PM 40.8833 -74.2833 339° North 272 313 6,100 263 Climbing New York TRACON
Wed 09:11:41 PM 40.9500 -74.2500 21° North 278 320 6,100  Level New York TRACON
Wed 09:12:41 PM 41.0167 -74.2000 30° Northeast 278 320 6,100  Level New York TRACON
Wed 09:13:00 PM 41.2427 -73.5685 43° Northeast  Level Estimated
Wed 09:13:41 PM 41.0500 -74.1000 66° East 280 322 6,100  Level New York TRACON
Wed 09:14:41 PM 41.1000 -74.0167 51° Northeast 280 322 8,300 2,333 Climbing New York TRACON
Wed 09:15:47 PM 41.1333 -73.9167 66° East 291 335 11,000 1,796 Climbing New York TRACON
Wed 09:17:28 PM 41.2133 -73.7425 59° Northeast 352 405 13,300 1,304 Climbing Boston Center
Wed 09:18:28 PM 41.2603 -73.6275 61° Northeast 352 405 14,500 1,250 Climbing Boston Center
Wed 09:19:28 PM 41.3219 -73.5264 51° Northeast 346 398 15,800 1,200 Climbing Boston Center
Wed 09:20:28 PM 41.3894 -73.4361 45° Northeast 346 398 16,900 1,200 Climbing Boston Center
Wed 09:21:28 PM 41.4611 -73.3431 44° Northeast 346 398 18,200 1,200 Climbing Boston Center
Wed 09:22:28 PM 41.5347 -73.2444 45° Northeast 358 412 19,300 1,150 Climbing Boston Center
Wed 09:23:28 PM 41.6042 -73.1536 44° Northeast 358 412 20,500 1,250 Climbing Boston Center
Wed 09:24:28 PM 41.6981 -73.1186 16° North 348 400 21,800 1,250 Climbing Boston Center
Wed 09:25:28 PM 41.8000 -73.1364 353° North 340 391 23,000 1,200 Climbing Boston Center
Wed 09:26:28 PM 41.8981 -73.1542 352° North 345 397 24,200 1,000 Climbing Boston Center
Wed 09:27:28 PM 41.9978 -73.1719 352° North 352 405 25,000 400 Climbing Boston Center
Wed 09:28:28 PM 42.1083 -73.1789 357° North 373 429 25,000 -150 Level Boston Center
Wed 09:29:28 PM 42.2006 -73.0903 35° Northeast 374 430 24,700 -550 Descending Boston Center
Wed 09:30:28 PM 42.2575 -72.9450 62° Northeast 383 441 23,900 -1,000 Descending Boston Center
Wed 09:31:28 PM 42.3144 -72.8022 62° Northeast 408 470 22,700 -1,200 Descending Boston Center
Wed 09:32:28 PM 42.3753 -72.6536 61° Northeast 428 493 21,500 -850 Descending Boston Center
Wed 09:33:28 PM 42.4317 -72.5075 62° Northeast 434 499 21,000 -350 Descending Boston Center
Wed 09:34:28 PM 42.4900 -72.3808 58° Northeast 422 486 20,800 -850 Descending Boston Center
Wed 09:35:28 PM 42.5753 -72.2878 39° Northeast 400 460 19,300 -1,400 Descending Boston Center
Wed 09:36:28 PM 42.6503 -72.2169 35° Northeast 380 437 18,000 -1,400 Descending Boston Center
Wed 09:37:28 PM 42.7061 -72.0672 63° Northeast 385 443 16,500 -1,450 Descending Boston Center
Wed 09:38:28 PM 42.7453 -71.9481 66° East 385 443 15,100 -1,500 Descending Boston Center
Wed 09:39:28 PM 42.7925 -71.8036 66° East 373 429 13,500 -1,500 Descending Boston Center
Wed 09:40:28 PM 42.8378 -71.6869 62° Northeast 379 436 12,100 -1,500 Descending Boston Center
Wed 09:41:28 PM 42.8889 -71.5531 62° Northeast 366 421 10,500 -1,050 Descending Boston Center
Wed 09:42:28 PM 42.9297 -71.4506 61° Northeast 355 409 10,000 -250 Descending Boston Center
Wed 09:43:28 PM 42.9806 -71.3192 62° Northeast 349 402 10,000 -636 Level Boston Center
Wed 09:44:40 PM 43.0272 -71.1903 64° Northeast 317 365 8,600 -1,315 Descending Boston Center
Wed 09:45:54 PM 43.0833 -71.0833 54° Northeast 289 333 6,800 -1,478 Descending KA90
Wed 09:46:54 PM 43.1333 -71.0000 51° Northeast 274 315 5,300 -1,526 Descending KA90
Wed 09:47:48 PM 43.1667 -70.9167 61° Northeast 287 330 3,900 -1,358 Descending KA90
Wed 09:48:40 PM 43.2189 -70.8503 43° Northeast 282 325 2,900 -911 Descending Boston Center
Wed 09:49:40 PM 43.2553 -70.7867 52° Northeast 262 302 2,200 -550 Descending Boston Center
Wed 09:50:40 PM 43.2939 -70.7086 56° Northeast 230 265 1,800 -250 Descending Boston Center
Wed 09:51:40 PM 43.3328 -70.6675 38° Northeast 205 236 1,700 -500 Descending Boston Center
Wed 09:52:40 PM 43.3808 -70.6689 359° North 157 181 800 -650 Descending Boston Center
Wed 09:53:40 PM 43.4061 -70.6939 324° Northwest 129 148 400 -400 Descending Boston Center

Login

Don't have an account? Register now (free) for customized features, flight alerts, and more!